Map

Track Data

SID SEASON NUMBER BASIN SUBBASIN NAME ISO_TIME NATURE LAT LON WMO_WIND WMO_PRES WMO_AGENCY TRACK_TYPE DIST2LAND LANDFALL IFLAG USA_AGENCY USA_ATCF_ID USA_LAT USA_LON USA_RECORD USA_STATUS USA_WIND USA_PRES USA_SSHS USA_R34_NE USA_R34_SE USA_R34_SW USA_R34_NW USA_R50_NE USA_R50_SE USA_R50_SW USA_R50_NW USA_R64_NE USA_R64_SE USA_R64_SW USA_R64_NW USA_POCI USA_ROCI USA_RMW USA_EYE TOKYO_LAT TOKYO_LON TOKYO_GRADE TOKYO_WIND TOKYO_PRES TOKYO_R50_DIR TOKYO_R50_LONG TOKYO_R50_SHORT TOKYO_R30_DIR TOKYO_R30_LONG TOKYO_R30_SHORT TOKYO_LAND CMA_LAT CMA_LON CMA_CAT CMA_WIND CMA_PRES HKO_LAT HKO_LON HKO_CAT HKO_WIND HKO_PRES NEWDELHI_LAT NEWDELHI_LON NEWDELHI_GRADE NEWDELHI_WIND NEWDELHI_PRES NEWDELHI_CI NEWDELHI_DP NEWDELHI_POCI REUNION_LAT REUNION_LON REUNION_TYPE REUNION_WIND REUNION_PRES REUNION_TNUM REUNION_CI REUNION_RMW REUNION_R34_NE REUNION_R34_SE REUNION_R34_SW REUNION_R34_NW REUNION_R50_NE REUNION_R50_SE REUNION_R50_SW REUNION_R50_NW REUNION_R64_NE REUNION_R64_SE REUNION_R64_SW REUNION_R64_NW BOM_LAT BOM_LON BOM_TYPE BOM_WIND BOM_PRES BOM_TNUM BOM_CI BOM_RMW BOM_R34_NE BOM_R34_SE BOM_R34_SW BOM_R34_NW BOM_R50_NE BOM_R50_SE BOM_R50_SW BOM_R50_NW BOM_R64_NE BOM_R64_SE BOM_R64_SW BOM_R64_NW BOM_ROCI BOM_POCI BOM_EYE BOM_POS_METHOD BOM_PRES_METHOD NADI_LAT NADI_LON NADI_CAT NADI_WIND NADI_PRES WELLINGTON_LAT WELLINGTON_LON WELLINGTON_WIND WELLINGTON_PRES DS824_LAT DS824_LON DS824_STAGE DS824_WIND DS824_PRES TD9636_LAT TD9636_LON TD9636_STAGE TD9636_WIND TD9636_PRES TD9635_LAT TD9635_LON TD9635_WIND TD9635_PRES TD9635_ROCI NEUMANN_LAT NEUMANN_LON NEUMANN_CLASS NEUMANN_WIND NEUMANN_PRES MLC_LAT MLC_LON MLC_CLASS MLC_WIND MLC_PRES USA_GUST BOM_GUST BOM_GUST_PER REUNION_GUST REUNION_GUST_PER USA_SEAHGT USA_SEARAD_NE USA_SEARAD_SE USA_SEARAD_SW USA_SEARAD_NW STORM_SPEED STORM_DIR
1960231N26285 1960 58 NA NA CLEO 1960-08-17 18:00:00 TS 26.0000 -74.7000 25 hurdat_atl main 343 339 O_____________ hurdat_atl AL041960 26.0000 -74.7000 TD 25 -1 7 155
1960231N26285 1960 58 NA NA CLEO 1960-08-17 21:00:00 TS 25.6974 -74.5399 main 348 344 P_____________ AL041960 25.6974 -74.5399 TD 27 -1 6 144
1960231N26285 1960 58 NA NA CLEO 1960-08-18 00:00:00 TS 25.5000 -74.3000 30 hurdat_atl main 360 360 O_____________ hurdat_atl AL041960 25.5000 -74.3000 TD 30 -1 6 110
1960231N26285 1960 58 NA NA CLEO 1960-08-18 03:00:00 TS 25.4951 -73.9298 main 398 398 P_____________ AL041960 25.4951 -73.9298 TD 37 0 7 75
1960231N26285 1960 58 NA NA CLEO 1960-08-18 06:00:00 TS 25.7000 -73.5000 45 hurdat_atl main 443 443 O_____________ hurdat_atl AL041960 25.7000 -73.5000 TS 45 0 9 52
1960231N26285 1960 58 NA NA CLEO 1960-08-18 09:00:00 TS 26.0748 -73.1074 main 495 495 P_____________ AL041960 26.0748 -73.1074 TS 52 0 12 39
1960231N26285 1960 58 NA NA CLEO 1960-08-18 12:00:00 TS 26.6000 -72.7000 60 997 hurdat_atl main 553 553 O_____________ hurdat_atl AL041960 26.6000 -72.7000 TS 60 997 0 13 35
1960231N26285 1960 58 NA NA CLEO 1960-08-18 15:00:00 TS 27.1550 -72.2497 main 624 624 P_____________ AL041960 27.1550 -72.2497 TS 62 0 14 34
1960231N26285 1960 58 NA NA CLEO 1960-08-18 18:00:00 TS 27.8000 -71.8000 65 hurdat_atl main 686 686 O_____________ hurdat_atl AL041960 27.8000 -71.8000 HU 65 1 16 29
1960231N26285 1960 58 NA NA CLEO 1960-08-18 21:00:00 TS 28.5123 -71.3919 main 756 756 P_____________ AL041960 28.5123 -71.3919 HU 67 1 17 25
1960231N26285 1960 58 NA NA CLEO 1960-08-19 00:00:00 TS 29.3000 -71.0000 70 hurdat_atl main 793 753 O_____________ hurdat_atl AL041960 29.3000 -71.0000 HU 70 1 17 23
1960231N26285 1960 58 NA NA CLEO 1960-08-19 03:00:00 TS 30.1049 -70.5991 main 753 722 P_____________ AL041960 30.1049 -70.5991 HU 72 1 18 22
1960231N26285 1960 58 NA NA CLEO 1960-08-19 06:00:00 TS 31.0000 -70.2000 75 hurdat_atl main 715 681 O_____________ hurdat_atl AL041960 31.0000 -70.2000 HU 75 1 20 20
1960231N26285 1960 58 NA NA CLEO 1960-08-19 09:00:00 TS 32.0049 -69.7992 main 674 637 P_____________ AL041960 32.0049 -69.7992 HU 75 1 22 18
1960231N26285 1960 58 NA NA CLEO 1960-08-19 12:00:00 TS 33.1000 -69.4000 75 999 hurdat_atl main 633 615 O_____________ hurdat_atl AL041960 33.1000 -69.4000 HU 75 999 1 23 17
1960231N26285 1960 58 NA NA CLEO 1960-08-19 15:00:00 TS 34.2349 -68.9991 main 616 610 P_____________ AL041960 34.2349 -68.9991 HU 75 997 1 24 16
1960231N26285 1960 58 NA NA CLEO 1960-08-19 18:00:00 TS 35.4000 -68.6000 75 995 hurdat_atl main 623 596 O_____________ hurdat_atl AL041960 35.4000 -68.6000 HU 75 995 1 24 15
1960231N26285 1960 58 NA NA CLEO 1960-08-19 21:00:00 TS 36.5497 -68.2131 main 596 493 P_____________ AL041960 36.5497 -68.2131 HU 72 996 1 24 16
1960231N26285 1960 58 NA NA CLEO 1960-08-20 00:00:00 TS 37.7000 -67.8000 70 997 hurdat_atl main 483 390 O_____________ hurdat_atl AL041960 37.7000 -67.8000 HU 70 997 1 24 16
1960231N26285 1960 58 NA NA CLEO 1960-08-20 03:00:00 TS 38.8568 -67.3571 main 381 328 P_____________ AL041960 38.8568 -67.3571 HU 70 1 24 19
1960231N26285 1960 58 NA NA CLEO 1960-08-20 06:00:00 TS 40.0000 -66.8000 70 hurdat_atl main 328 268 O_____________ hurdat_atl AL041960 40.0000 -66.8000 HU 70 1 25 23
1960231N26285 1960 58 NA NA CLEO 1960-08-20 09:00:00 TS 41.1674 -66.0611 main 257 155 P_____________ AL041960 41.1674 -66.0611 HU 65 1 25 29
1960231N26285 1960 58 NA NA CLEO 1960-08-20 12:00:00 TS 42.2000 -65.2000 60 hurdat_atl main 144 87 O_____________ hurdat_atl AL041960 42.2000 -65.2000 TS 60 0 22 34
1960231N26285 1960 58 NA NA CLEO 1960-08-20 15:00:00 TS 43.0172 -64.3946 main 91 82 P_____________ AL041960 43.0172 -64.3946 TS 52 0 19 43
1960231N26285 1960 58 NA NA CLEO 1960-08-20 18:00:00 TS 43.6000 -63.4000 45 hurdat_atl main 90 81 O_____________ hurdat_atl AL041960 43.6000 -63.4000 TS 45 0 19 61
1960231N26285 1960 58 NA NA CLEO 1960-08-20 21:00:00 TS 43.9660 -62.0574 main 94 94 P_____________ AL041960 43.9660 -62.0574 TS 40 0 22 74
1960231N26285 1960 58 NA NA CLEO 1960-08-21 00:00:00 TS 44.2000 -60.5000 35 hurdat_atl main 120 O_____________ hurdat_atl AL041960 44.2000 -60.5000 TS 35 0 23 78

About IBTrACS Database

This database is a web-friendly format of International Best Track Archive for Climate Stewardship (IBTrACS), a global best track data archive curated by NOAA dating back to 1842.

Updated: 2021-10-19